Blean, United Kingdom
Current Conditions -  °F | °C
As of 5:20 AM on Friday 31 Oct 2014 (Local Time) from EGMC Reporting Station
Clear Clear  
Wind Chill: 14°   Ceiling: Unl
Heat Index: 14°   Visibility: 6mi
Dew Point: 12°   Wind: 7mph
Humidity: 88%   Direction: 190°S
Pressure: 30.06"   Gusts: NA
Location:  51.31°N, 1.04°E
Report Text: EGMC 310520Z 19006KT CAVOK 14/12 Q1018
Loading
Personal Weather Stations






























Interactive Weather Map
Tropical Storm Tracking
New forecast layout! Learn more

10-Day Weather Forecast

Advertisements
Track Severe Weather on mobile